Time;durP1;ratioP1;P1;durP2;ratioP2;P2;SDS_P1;SDS_P2;PMS_P1;PMS_P2;Temp;Humidity;BMP_temperature;BMP_pressure;BME280_temperature;BME280_humidity;BME280_pressure;Samples;Min_cycle;Max_cycle;Signal;HPM_P1;HPM_P2
2021/10/16 00:00:55;;;;;;;8.85;3.50;;;7.90;99.90;;;;;;4970021;28;20823;-35
2021/10/16 00:03:20;;;;;;;11.18;2.60;;;7.90;99.90;;;;;;4980018;28;20038;-36
2021/10/16 00:05:46;;;;;;;5.50;2.20;;;7.80;99.90;;;;;;4969501;28;20157;-36
2021/10/16 00:08:11;;;;;;;7.80;2.72;;;7.80;99.90;;;;;;4976876;28;20096;-35
2021/10/16 00:10:37;;;;;;;6.03;2.70;;;7.80;99.90;;;;;;4988053;28;20041;-36
2021/10/16 00:13:03;;;;;;;9.45;3.10;;;7.80;99.90;;;;;;4982735;28;20023;-35
2021/10/16 00:15:29;;;;;;;9.45;3.00;;;7.80;99.90;;;;;;4981927;28;20026;-37
2021/10/16 00:17:54;;;;;;;6.63;2.80;;;7.80;99.90;;;;;;4985212;28;20027;-36
2021/10/16 00:20:20;;;;;;;6.85;2.90;;;7.80;99.90;;;;;;4978934;28;20034;-36
2021/10/16 00:22:46;;;;;;;8.18;3.08;;;7.70;99.90;;;;;;4986774;28;20394;-35
2021/10/16 00:25:11;;;;;;;9.30;3.83;;;7.80;99.90;;;;;;4978305;28;20133;-36
2021/10/16 00:27:37;;;;;;;11.80;3.60;;;7.70;99.90;;;;;;4985983;28;20026;-36
2021/10/16 00:30:04;;;;;;;6.22;2.72;;;7.70;99.90;;;;;;4977464;28;20378;-36
2021/10/16 00:32:29;;;;;;;8.68;3.17;;;7.70;99.90;;;;;;4987470;28;20022;-37
2021/10/16 00:34:55;;;;;;;7.10;2.65;;;7.60;99.90;;;;;;4975266;28;20029;-36
2021/10/16 00:37:24;;;;;;;5.40;2.65;;;7.60;99.90;;;;;;4988873;28;20030;-36
2021/10/16 00:39:51;;;;;;;6.90;3.05;;;7.60;99.90;;;;;;4975972;28;20034;-35
2021/10/16 00:42:17;;;;;;;7.15;2.45;;;7.60;99.90;;;;;;4987455;28;20395;-37
2021/10/16 00:44:42;;;;;;;7.30;2.70;;;7.60;99.90;;;;;;4977002;28;20038;-36
2021/10/16 00:47:08;;;;;;;10.45;2.92;;;7.60;99.90;;;;;;4986327;28;20034;-37
2021/10/16 00:49:33;;;;;;;9.15;3.50;;;7.50;99.90;;;;;;4980959;28;20045;-36
2021/10/16 00:52:00;;;;;;;10.65;3.80;;;7.50;99.90;;;;;;4973214;28;20545;-36
2021/10/16 00:54:26;;;;;;;9.48;3.90;;;7.50;99.90;;;;;;4973388;28;20022;-36
2021/10/16 00:56:54;;;;;;;8.18;3.47;;;7.40;99.90;;;;;;4975267;28;20650;-35
2021/10/16 00:59:20;;;;;;;8.70;3.33;;;7.50;99.90;;;;;;4972450;28;20033;-36
2021/10/16 01:01:46;;;;;;;8.38;3.15;;;7.40;99.90;;;;;;4976399;28;20404;-35
2021/10/16 01:04:12;;;;;;;10.60;4.30;;;7.40;99.90;;;;;;4970137;28;20112;-37
2021/10/16 01:06:38;;;;;;;11.35;3.30;;;7.40;99.90;;;;;;4979192;28;20522;-36
2021/10/16 01:09:08;;;;;;;10.43;3.60;;;7.40;99.90;;;;;;4969162;28;20494;-35
2021/10/16 01:11:47;;;;;;;7.25;3.10;;;7.40;99.90;;;;;;4979045;28;20035;-36
2021/10/16 01:14:13;;;;;;;9.40;3.60;;;7.30;99.90;;;;;;4970368;28;20049;-38
2021/10/16 01:16:41;;;;;;;9.90;3.22;;;7.30;99.90;;;;;;4978574;28;20023;-36
2021/10/16 01:19:18;;;;;;;9.05;3.20;;;7.30;99.90;;;;;;4968949;28;20023;-35
2021/10/16 01:21:46;;;;;;;8.80;3.13;;;7.20;99.90;;;;;;4976880;28;20082;-37
2021/10/16 01:24:13;;;;;;;7.40;2.92;;;7.10;99.90;;;;;;4987562;28;20019;-37
2021/10/16 01:26:41;;;;;;;8.68;2.90;;;7.10;99.90;;;;;;4975008;28;20010;-35
2021/10/16 01:29:11;;;;;;;7.28;2.78;;;7.00;99.90;;;;;;4988422;28;20105;-35
2021/10/16 01:31:37;;;;;;;6.72;3.10;;;6.90;99.90;;;;;;4974771;28;20509;-35
2021/10/16 01:34:03;;;;;;;9.35;3.03;;;6.90;99.90;;;;;;4988034;28;20031;-36
2021/10/16 01:36:40;;;;;;;8.68;2.60;;;7.00;99.90;;;;;;4982496;28;20379;-35
2021/10/16 01:39:06;;;;;;;5.70;2.63;;;7.00;99.90;;;;;;4968504;28;20031;-35
2021/10/16 01:41:32;;;;;;;5.50;2.72;;;6.90;99.90;;;;;;4977491;28;20105;-35
2021/10/16 01:43:57;;;;;;;7.85;2.53;;;6.90;99.90;;;;;;4969781;28;20022;-35
2021/10/16 01:46:23;;;;;;;5.80;2.60;;;7.00;99.90;;;;;;4975088;28;20034;-36
2021/10/16 01:48:48;;;;;;;6.10;2.45;;;7.00;99.90;;;;;;4980557;28;20026;-35
2021/10/16 01:51:18;;;;;;;9.57;2.83;;;7.10;99.90;;;;;;4982026;28;20100;-36
2021/10/16 01:53:44;;;;;;;9.02;2.65;;;7.10;99.90;;;;;;4980776;28;20030;-37
2021/10/16 01:56:10;;;;;;;6.15;2.35;;;7.10;99.90;;;;;;4988379;28;20041;-36
2021/10/16 01:58:35;;;;;;;4.80;2.30;;;7.20;99.90;;;;;;4980986;28;20096;-36
2021/10/16 02:01:01;;;;;;;10.52;3.50;;;7.30;99.90;;;;;;4990321;28;20037;-37
2021/10/16 02:03:26;;;;;;;5.57;2.45;;;7.30;99.90;;;;;;4979730;28;20022;-36
2021/10/16 02:05:55;;;;;;;8.52;2.42;;;7.30;99.90;;;;;;4989195;28;20058;-36
2021/10/16 02:08:20;;;;;;;7.10;2.63;;;7.40;99.90;;;;;;4982703;28;20069;-36
2021/10/16 02:10:46;;;;;;;7.15;2.50;;;7.30;99.90;;;;;;4971033;28;20039;-36
2021/10/16 02:13:12;;;;;;;6.45;2.70;;;7.30;99.90;;;;;;4983672;28;20027;-35
2021/10/16 02:15:37;;;;;;;5.32;2.40;;;7.30;99.90;;;;;;4971401;28;20041;-36
2021/10/16 02:18:03;;;;;;;9.00;2.58;;;7.30;99.90;;;;;;4983690;28;20018;-36
2021/10/16 02:20:29;;;;;;;7.28;2.60;;;7.30;99.90;;;;;;4970722;28;20035;-35
2021/10/16 02:22:54;;;;;;;7.00;2.45;;;7.40;99.90;;;;;;4981506;28;20014;-36
2021/10/16 02:25:20;;;;;;;5.22;2.45;;;7.40;99.90;;;;;;4973919;28;20126;-37
2021/10/16 02:27:45;;;;;;;8.63;2.53;;;7.40;99.90;;;;;;4977968;28;20057;-35
2021/10/16 02:30:11;;;;;;;8.63;3.53;;;7.40;99.90;;;;;;4976318;28;20044;-36
2021/10/16 02:32:37;;;;;;;8.70;3.40;;;7.50;99.90;;;;;;4974767;28;20549;-37
2021/10/16 02:35:03;;;;;;;9.45;3.30;;;7.50;99.90;;;;;;4979381;28;20037;-37
2021/10/16 02:37:28;;;;;;;9.93;3.75;;;7.50;99.90;;;;;;4972886;28;20035;-37
2021/10/16 02:39:54;;;;;;;7.75;3.38;;;7.50;99.90;;;;;;4980493;28;20037;-35
2021/10/16 02:42:19;;;;;;;10.27;3.20;;;7.60;99.90;;;;;;4974727;28;20030;-37
2021/10/16 02:44:45;;;;;;;6.68;3.15;;;7.50;99.90;;;;;;4979482;28;20451;-36
2021/10/16 02:47:10;;;;;;;11.68;4.60;;;7.60;99.90;;;;;;4989583;28;20105;-36
2021/10/16 02:49:36;;;;;;;11.48;5.57;;;7.60;99.90;;;;;;4987517;28;20141;-38
2021/10/16 02:52:01;;;;;;;20.67;8.70;;;7.60;99.90;;;;;;4990387;28;20061;-36
2021/10/16 02:54:27;;;;;;;14.07;6.85;;;7.70;99.90;;;;;;4981823;28;20064;-37
2021/10/16 02:56:52;;;;;;;16.10;7.18;;;7.60;99.90;;;;;;4971498;28;20534;-37
2021/10/16 02:59:18;;;;;;;14.50;6.10;;;7.70;99.90;;;;;;4981948;28;20434;-37
2021/10/16 03:01:43;;;;;;;15.15;6.47;;;7.70;99.90;;;;;;4970410;28;20027;-37
2021/10/16 03:04:09;;;;;;;15.57;7.13;;;7.70;99.90;;;;;;4979798;28;20038;-34
2021/10/16 03:06:35;;;;;;;18.67;8.00;;;7.80;99.90;;;;;;4973343;28;20150;-36
2021/10/16 03:09:00;;;;;;;17.50;9.13;;;7.80;99.90;;;;;;4975920;28;20474;-36
2021/10/16 03:11:26;;;;;;;15.05;7.68;;;7.90;99.90;;;;;;4975953;28;20035;-35
2021/10/16 03:13:52;;;;;;;14.65;7.13;;;7.90;99.90;;;;;;4973912;28;20486;-36
2021/10/16 03:16:23;;;;;;;14.70;6.60;;;8.00;99.90;;;;;;4978152;28;20031;-36
2021/10/16 03:18:49;;;;;;;10.30;5.18;;;8.00;99.90;;;;;;4972328;28;20085;-37
2021/10/16 03:21:14;;;;;;;11.90;4.97;;;8.00;99.90;;;;;;4980831;28;20097;-36
2021/10/16 03:23:40;;;;;;;8.85;4.10;;;8.00;99.90;;;;;;4970182;28;20045;-38
2021/10/16 03:26:05;;;;;;;8.25;3.90;;;8.10;99.90;;;;;;4981645;28;20038;-36
2021/10/16 03:28:31;;;;;;;10.70;4.95;;;8.10;99.90;;;;;;4970095;28;20050;-37
2021/10/16 03:30:56;;;;;;;8.80;4.60;;;8.10;99.90;;;;;;4981295;28;20031;-38
2021/10/16 03:33:22;;;;;;;7.57;4.07;;;8.10;99.90;;;;;;4970050;28;20394;-37
2021/10/16 03:35:50;;;;;;;6.78;3.20;;;8.10;99.90;;;;;;4981130;28;20054;-35
2021/10/16 03:38:16;;;;;;;7.97;3.40;;;8.10;99.90;;;;;;4970461;28;20033;-37
2021/10/16 03:40:41;;;;;;;8.20;3.40;;;8.10;99.90;;;;;;4980942;28;20050;-36
2021/10/16 03:43:07;;;;;;;7.00;2.90;;;8.10;99.90;;;;;;4969959;28;20046;-38
2021/10/16 03:45:32;;;;;;;8.38;3.10;;;8.10;99.90;;;;;;4978499;28;20114;-36
2021/10/16 03:47:58;;;;;;;7.82;2.80;;;8.20;99.90;;;;;;4973163;28;20093;-36
2021/10/16 03:50:23;;;;;;;5.93;3.38;;;8.20;99.90;;;;;;4981570;28;20034;-36
2021/10/16 03:52:50;;;;;;;6.15;3.00;;;8.20;99.90;;;;;;4983654;28;20540;-36
2021/10/16 03:55:15;;;;;;;8.70;3.58;;;8.20;99.90;;;;;;4985405;28;20027;-36
2021/10/16 03:57:41;;;;;;;9.63;3.00;;;8.20;99.90;;;;;;4980293;28;20868;-36
2021/10/16 04:00:15;;;;;;;6.43;2.70;;;8.20;99.90;;;;;;4987556;28;20049;-36
2021/10/16 04:02:42;;;;;;;6.13;2.55;;;8.20;99.90;;;;;;4978949;28;20478;-36
2021/10/16 04:05:08;;;;;;;6.55;2.40;;;8.30;99.90;;;;;;4986966;28;20046;-37
2021/10/16 04:07:33;;;;;;;4.28;2.45;;;8.30;99.90;;;;;;4977830;28;20089;-35
2021/10/16 04:09:59;;;;;;;6.18;2.78;;;8.30;99.90;;;;;;4987839;28;20539;-35
2021/10/16 04:12:24;;;;;;;7.97;2.10;;;8.30;99.90;;;;;;4976726;28;20134;-36
2021/10/16 04:14:50;;;;;;;10.18;2.30;;;8.30;99.90;;;;;;4988925;28;20779;-36
2021/10/16 04:17:15;;;;;;;4.95;2.20;;;8.30;99.90;;;;;;4975831;28;20019;-36
2021/10/16 04:19:41;;;;;;;6.88;1.88;;;8.40;99.90;;;;;;4987663;28;20113;-36
2021/10/16 04:22:07;;;;;;;5.85;2.30;;;8.40;99.90;;;;;;4977527;28;20023;-36
2021/10/16 04:24:32;;;;;;;6.38;2.55;;;8.40;99.90;;;;;;4987950;28;20486;-36
2021/10/16 04:26:58;;;;;;;6.25;2.28;;;8.40;99.90;;;;;;4979171;28;20090;-35
2021/10/16 04:29:24;;;;;;;7.57;2.60;;;8.40;99.90;;;;;;4985494;28;20513;-35
2021/10/16 04:31:50;;;;;;;7.47;3.30;;;8.40;99.90;;;;;;4981352;28;20027;-36
2021/10/16 04:34:15;;;;;;;5.55;2.67;;;8.40;99.90;;;;;;4982617;28;20044;-36
2021/10/16 04:36:41;;;;;;;6.53;2.70;;;8.40;99.90;;;;;;4983465;28;20022;-36
2021/10/16 04:39:07;;;;;;;4.43;2.28;;;8.40;99.90;;;;;;4979713;28;20077;-34
2021/10/16 04:41:35;;;;;;;9.52;4.30;;;8.50;99.90;;;;;;4986273;28;20033;-36
2021/10/16 04:44:01;;;;;;;8.30;4.57;;;8.50;99.90;;;;;;4978070;28;20026;-36
2021/10/16 04:46:26;;;;;;;7.85;4.30;;;8.50;99.90;;;;;;4985461;28;20438;-35
2021/10/16 04:48:52;;;;;;;8.18;3.60;;;8.50;99.90;;;;;;4970706;28;20131;-35
2021/10/16 04:51:18;;;;;;;7.57;3.28;;;8.50;99.90;;;;;;4969624;28;20121;-35
2021/10/16 04:53:43;;;;;;;6.70;3.25;;;8.50;99.90;;;;;;4979613;28;20089;-36
2021/10/16 04:56:09;;;;;;;6.85;3.80;;;8.50;99.90;;;;;;4969151;28;20478;-36
2021/10/16 04:58:34;;;;;;;6.90;2.85;;;8.50;99.90;;;;;;4980525;28;20054;-35
2021/10/16 05:01:00;;;;;;;7.18;2.78;;;8.50;99.90;;;;;;4968333;28;20105;-35
2021/10/16 05:03:26;;;;;;;6.68;2.22;;;8.60;99.90;;;;;;4979361;28;20030;-35
2021/10/16 05:05:53;;;;;;;4.72;2.33;;;8.60;99.90;;;;;;4969527;28;20538;-35
2021/10/16 05:08:19;;;;;;;7.50;2.53;;;8.60;99.90;;;;;;4977297;28;20023;-36
2021/10/16 05:10:44;;;;;;;6.28;2.28;;;8.60;99.90;;;;;;4971171;28;20031;-36
2021/10/16 05:13:12;;;;;;;6.00;1.98;;;8.70;99.90;;;;;;4975131;28;20441;-35
2021/10/16 05:15:38;;;;;;;8.32;2.15;;;8.70;99.90;;;;;;4973132;28;20030;-36
2021/10/16 05:18:03;;;;;;;5.45;2.28;;;8.70;99.90;;;;;;4972779;28;20093;-36
2021/10/16 05:20:29;;;;;;;11.43;2.95;;;8.70;99.90;;;;;;4976572;28;20573;-35
2021/10/16 05:22:54;;;;;;;8.57;2.65;;;8.70;99.90;;;;;;4969589;28;20052;-35
2021/10/16 05:25:20;;;;;;;7.70;3.35;;;8.70;99.90;;;;;;4979223;28;20556;-35
2021/10/16 05:27:49;;;;;;;5.95;2.83;;;8.70;99.90;;;;;;4969091;28;20027;-35
2021/10/16 05:30:15;;;;;;;6.75;3.38;;;8.70;99.90;;;;;;4982558;28;20047;-35
2021/10/16 05:32:40;;;;;;;7.13;3.00;;;8.70;99.90;;;;;;4972601;28;20057;-35
2021/10/16 05:35:06;;;;;;;6.10;3.15;;;8.70;99.90;;;;;;4984014;28;20031;-36
2021/10/16 05:37:32;;;;;;;8.80;2.75;;;8.70;99.90;;;;;;4971232;28;20038;-35
2021/10/16 05:39:57;;;;;;;7.28;3.08;;;8.70;99.90;;;;;;4984611;28;20080;-36
2021/10/16 05:42:23;;;;;;;5.05;2.60;;;8.70;99.90;;;;;;4971628;28;20700;-36
2021/10/16 05:44:48;;;;;;;6.80;3.05;;;8.70;99.90;;;;;;4983100;28;20483;-35
2021/10/16 05:47:15;;;;;;;7.20;2.80;;;8.70;99.90;;;;;;4973485;28;20529;-36
2021/10/16 05:49:41;;;;;;;7.57;2.70;;;8.70;99.90;;;;;;4979652;28;20061;-35
2021/10/16 05:52:06;;;;;;;10.02;3.45;;;8.70;99.90;;;;;;4974512;28;20478;-35
2021/10/16 05:54:32;;;;;;;7.30;2.55;;;8.80;99.90;;;;;;4977910;28;20061;-37
2021/10/16 05:56:57;;;;;;;6.00;2.63;;;8.80;99.90;;;;;;4977272;28;20034;-36
2021/10/16 05:59:23;;;;;;;6.57;2.67;;;8.80;99.90;;;;;;4975201;28;20019;-36
2021/10/16 06:01:48;;;;;;;6.07;2.60;;;8.80;99.90;;;;;;4980087;28;20078;-36
2021/10/16 06:04:14;;;;;;;8.15;2.58;;;8.70;99.90;;;;;;4971530;28;20603;-36
2021/10/16 06:06:40;;;;;;;4.55;2.47;;;8.80;99.90;;;;;;4981818;28;20056;-36
2021/10/16 06:09:06;;;;;;;8.07;2.53;;;8.80;99.90;;;;;;4973931;28;20033;-35
2021/10/16 06:11:33;;;;;;;4.75;2.35;;;8.80;99.90;;;;;;4979450;28;20038;-36
2021/10/16 06:13:59;;;;;;;5.45;2.50;;;8.80;99.90;;;;;;4990692;28;20039;-35
2021/10/16 06:16:25;;;;;;;8.07;2.63;;;8.80;99.90;;;;;;4979227;28;20064;-35
2021/10/16 06:18:53;;;;;;;7.45;3.22;;;8.80;99.90;;;;;;4991112;28;20462;-35
2021/10/16 06:21:19;;;;;;;7.97;2.80;;;8.80;99.90;;;;;;4979208;28;20023;-35
2021/10/16 06:23:44;;;;;;;6.30;2.47;;;8.80;99.90;;;;;;4988227;28;20042;-36
2021/10/16 06:26:10;;;;;;;7.53;3.20;;;8.90;99.90;;;;;;4977586;28;20035;-36
2021/10/16 06:28:35;;;;;;;6.57;3.00;;;8.90;99.90;;;;;;4988400;28;20030;-35
2021/10/16 06:31:01;;;;;;;8.32;2.50;;;8.90;99.90;;;;;;4982459;28;20038;-36
2021/10/16 06:33:27;;;;;;;4.47;2.80;;;8.90;99.90;;;;;;4985961;28;20545;-37
2021/10/16 06:35:55;;;;;;;9.52;2.85;;;8.90;99.90;;;;;;4985007;28;20031;-36
2021/10/16 06:38:21;;;;;;;6.85;2.85;;;8.90;99.90;;;;;;4984701;28;20045;-36
2021/10/16 06:40:46;;;;;;;6.80;2.97;;;8.90;99.90;;;;;;4985251;28;20050;-36
2021/10/16 06:43:12;;;;;;;7.45;3.38;;;8.90;99.90;;;;;;4982177;28;20026;-37
2021/10/16 06:45:38;;;;;;;5.65;3.00;;;9.00;99.90;;;;;;4987961;28;20022;-36
2021/10/16 06:48:04;;;;;;;5.53;2.80;;;9.00;99.90;;;;;;4979165;28;20026;-37
2021/10/16 06:50:29;;;;;;;4.50;2.72;;;9.00;99.90;;;;;;4973435;28;20710;-36
2021/10/16 06:52:55;;;;;;;6.65;3.78;;;9.00;99.90;;;;;;4981303;28;20030;-40
2021/10/16 06:55:21;;;;;;;6.38;2.80;;;9.00;99.90;;;;;;4974053;28;20466;-36
2021/10/16 06:57:46;;;;;;;6.78;2.92;;;9.10;99.90;;;;;;4980951;28;20022;-36
2021/10/16 07:00:12;;;;;;;6.13;2.90;;;9.10;99.90;;;;;;4976662;28;20026;-36
2021/10/16 07:02:38;;;;;;;8.40;3.30;;;9.10;99.90;;;;;;4977561;28;20022;-37
2021/10/16 07:05:05;;;;;;;9.13;3.10;;;9.10;99.90;;;;;;4975878;28;20047;-36
2021/10/16 07:07:30;;;;;;;5.32;3.20;;;9.20;99.90;;;;;;4977464;28;20070;-38
2021/10/16 07:09:56;;;;;;;8.30;3.25;;;9.20;99.90;;;;;;4978642;28;20042;-36
2021/10/16 07:12:23;;;;;;;8.40;2.97;;;9.20;99.90;;;;;;4977639;28;20042;-36
2021/10/16 07:14:49;;;;;;;6.68;2.97;;;9.30;99.90;;;;;;4977539;28;20026;-35
2021/10/16 07:17:14;;;;;;;9.13;3.10;;;9.30;99.90;;;;;;4978778;28;20364;-33
2021/10/16 07:19:40;;;;;;;4.97;3.28;;;9.30;99.90;;;;;;4978117;28;20033;-27
2021/10/16 07:22:06;;;;;;;6.05;2.83;;;9.40;99.90;;;;;;4979742;28;20074;-36
2021/10/16 07:24:32;;;;;;;6.20;3.13;;;9.40;99.90;;;;;;4976146;28;20580;-36
2021/10/16 07:26:57;;;;;;;6.47;2.88;;;9.40;99.90;;;;;;4978963;28;20093;-32
2021/10/16 07:53:09;;;;;;;7.82;5.07;;;9.40;99.90;;;;;;5103495;27;20435;-32
2021/10/16 07:55:34;;;;;;;11.70;4.68;;;10.30;99.90;;;;;;5104210;28;20487;-34
2021/10/16 07:58:00;;;;;;;10.07;4.15;;;10.40;99.90;;;;;;5102914;28;20073;-39
2021/10/16 08:00:26;;;;;;;11.15;4.25;;;10.40;99.90;;;;;;5104127;28;20073;-34
2021/10/16 08:02:52;;;;;;;7.57;3.88;;;10.40;99.90;;;;;;5103905;28;20114;-31
2021/10/16 08:05:18;;;;;;;8.82;4.03;;;10.30;99.90;;;;;;5103277;28;20369;-42
2021/10/16 08:07:44;;;;;;;7.28;3.55;;;10.40;99.90;;;;;;5103934;28;20505;-35
2021/10/16 08:10:11;;;;;;;9.15;4.28;;;10.30;99.90;;;;;;5102498;28;20743;-30
2021/10/16 08:12:37;;;;;;;6.53;3.53;;;10.40;99.90;;;;;;5103350;28;20032;-36
2021/10/16 08:15:07;;;;;;;8.23;3.97;;;10.40;99.90;;;;;;5104114;28;20016;-33
2021/10/16 08:17:33;;;;;;;7.53;3.92;;;10.40;99.90;;;;;;5103055;28;20016;-33
2021/10/16 08:19:58;;;;;;;8.68;4.13;;;10.40;99.90;;;;;;5103772;28;20020;-38
2021/10/16 08:22:24;;;;;;;7.10;3.58;;;10.50;99.90;;;;;;5101384;28;20558;-33
2021/10/16 08:24:49;;;;;;;5.78;3.55;;;10.50;99.90;;;;;;5102334;28;20055;-34
2021/10/16 08:27:15;;;;;;;8.98;4.75;;;10.50;99.90;;;;;;5103297;28;20127;-34
2021/10/16 08:29:41;;;;;;;6.85;3.85;;;10.50;99.90;;;;;;5103799;28;20135;-35
2021/10/16 08:32:07;;;;;;;8.30;3.83;;;10.60;99.90;;;;;;5102962;28;20044;-33
2021/10/16 08:34:33;;;;;;;6.43;3.60;;;10.70;99.90;;;;;;5102680;28;20520;-33
2021/10/16 08:36:59;;;;;;;7.07;3.42;;;10.70;99.90;;;;;;5083242;28;20024;-34
2021/10/16 08:39:25;;;;;;;9.20;3.70;;;10.70;99.90;;;;;;5096958;28;20103;-34
2021/10/16 08:41:51;;;;;;;9.70;3.40;;;10.80;99.90;;;;;;5103574;28;20040;-33
2021/10/16 08:44:16;;;;;;;6.38;3.38;;;10.80;99.90;;;;;;5103313;28;20088;-34
2021/10/16 08:46:43;;;;;;;6.28;3.33;;;10.90;99.90;;;;;;5100662;28;20024;-33
2021/10/16 08:49:12;;;;;;;6.30;3.13;;;10.90;99.90;;;;;;5100201;28;20115;-35
2021/10/16 08:51:39;;;;;;;7.82;2.95;;;11.00;99.90;;;;;;5102075;28;20635;-33
2021/10/16 08:54:04;;;;;;;9.27;3.35;;;11.00;99.90;;;;;;5089334;28;20020;-33
2021/10/16 08:56:30;;;;;;;11.48;3.58;;;11.00;99.90;;;;;;5089336;28;20022;-33
2021/10/16 08:58:55;;;;;;;8.20;3.60;;;11.10;99.90;;;;;;5089447;28;20478;-33
2021/10/16 09:01:21;;;;;;;11.50;3.97;;;11.10;99.90;;;;;;5088140;28;20368;-34
2021/10/16 09:03:47;;;;;;;7.57;4.30;;;11.10;99.90;;;;;;5089114;28;20032;-33
2021/10/16 09:06:24;;;;;;;10.82;3.83;;;11.20;99.90;;;;;;5088000;28;20550;-33
2021/10/16 09:09:06;;;;;;;6.88;3.50;;;11.20;99.90;;;;;;5088995;28;20027;-33
2021/10/16 09:11:36;;;;;;;8.25;3.28;;;11.30;99.90;;;;;;5086044;28;20032;-34
2021/10/16 09:14:10;;;;;;;10.60;3.50;;;11.30;99.90;;;;;;5088060;28;20466;-34
2021/10/16 09:16:43;;;;;;;8.88;3.45;;;11.30;99.90;;;;;;5085657;28;20032;-33
2021/10/16 09:19:10;;;;;;;11.48;3.65;;;11.40;99.90;;;;;;5088911;28;20164;-33
2021/10/16 09:21:38;;;;;;;7.07;3.47;;;11.40;99.90;;;;;;5087498;28;20039;-43
2021/10/16 09:24:09;;;;;;;7.30;3.55;;;11.40;99.90;;;;;;5089279;28;20052;-43
2021/10/16 09:26:38;;;;;;;6.85;3.33;;;11.40;99.90;;;;;;5088877;28;20036;-44
2021/10/16 09:29:05;;;;;;;7.88;3.42;;;11.50;99.90;;;;;;5088333;28;20027;-43
2021/10/16 09:31:37;;;;;;;7.07;3.10;;;11.50;99.90;;;;;;5087985;28;20096;-43
2021/10/16 09:34:03;;;;;;;7.65;3.50;;;11.60;99.90;;;;;;5087799;28;20020;-43
2021/10/16 09:36:30;;;;;;;9.43;3.42;;;11.60;99.90;;;;;;5086321;28;20031;-43
2021/10/16 09:38:56;;;;;;;7.15;3.42;;;11.70;99.90;;;;;;5087307;28;20028;-44
2021/10/16 09:41:27;;;;;;;6.07;2.95;;;11.70;99.90;;;;;;5086886;28;20563;-44
2021/10/16 09:43:53;;;;;;;7.57;3.38;;;11.80;99.90;;;;;;5066594;28;20028;-43
2021/10/16 09:46:22;;;;;;;8.18;3.10;;;11.80;99.90;;;;;;5077750;28;20027;-44
2021/10/16 09:48:48;;;;;;;11.48;3.05;;;11.90;99.90;;;;;;5085169;28;20028;-42
2021/10/16 09:51:15;;;;;;;7.28;3.20;;;11.90;99.90;;;;;;5078447;28;20059;-44
2021/10/16 09:53:46;;;;;;;7.78;3.20;;;12.00;99.90;;;;;;5086837;28;20028;-42
2021/10/16 09:56:12;;;;;;;8.38;3.30;;;12.00;99.90;;;;;;5083745;28;20082;-43
2021/10/16 09:58:38;;;;;;;5.47;3.00;;;12.10;99.90;;;;;;5087527;28;20118;-43
2021/10/16 10:01:04;;;;;;;8.38;3.22;;;12.20;99.90;;;;;;5086648;28;20088;-43
2021/10/16 10:03:32;;;;;;;6.50;3.33;;;12.20;99.90;;;;;;5087751;28;20028;-44
2021/10/16 10:05:58;;;;;;;9.85;3.10;;;12.30;99.90;;;;;;5088107;28;20209;-44
2021/10/16 10:08:27;;;;;;;7.22;2.85;;;12.30;99.90;;;;;;5088135;28;20095;-42
2021/10/16 10:10:53;;;;;;;8.75;3.25;;;12.40;99.90;;;;;;5087213;28;20266;-43
2021/10/16 10:13:18;;;;;;;7.93;2.67;;;12.40;99.90;;;;;;5086629;28;20060;-43
2021/10/16 10:15:44;;;;;;;6.95;2.72;;;12.40;99.90;;;;;;5087839;28;20499;-43
2021/10/16 10:20:59;;;;;;;5.20;2.72;;;12.50;99.90;;;;;;5088416;28;20115;-43
2021/10/16 10:23:26;;;;;;;8.43;3.25;;;12.60;99.90;;;;;;5087712;28;20443;-42
2021/10/16 10:26:24;;;;;;;5.78;2.53;;;12.70;99.90;;;;;;5087288;28;20078;-44
2021/10/16 10:28:52;;;;;;;9.27;2.78;;;12.70;99.90;;;;;;5086369;28;20047;-43
2021/10/16 10:31:53;;;;;;;8.90;2.60;;;12.80;99.90;;;;;;5086547;28;20849;-43
2021/10/16 10:34:25;;;;;;;5.30;2.38;;;12.80;99.90;;;;;;5085345;28;20111;-43
2021/10/16 10:37:14;;;;;;;9.18;2.80;;;12.90;99.90;;;;;;5087397;28;20514;-42
2021/10/16 10:39:46;;;;;;;8.93;2.83;;;13.00;99.90;;;;;;5086524;28;20020;-44
2021/10/16 10:42:11;;;;;;;7.40;2.55;;;13.00;99.90;;;;;;5087076;28;20038;-43
2021/10/16 10:44:44;;;;;;;8.43;2.55;;;13.00;99.90;;;;;;5087174;28;20198;-43
2021/10/16 10:47:28;;;;;;;5.55;2.17;;;13.10;99.90;;;;;;5085168;28;20034;-43
2021/10/16 10:49:56;;;;;;;7.07;2.05;;;13.10;99.90;;;;;;5085599;28;20028;-44
2021/10/16 10:52:23;;;;;;;6.90;2.67;;;13.20;99.90;;;;;;5086998;28;20839;-43
2021/10/16 10:55:01;;;;;;;5.53;1.98;;;13.20;99.90;;;;;;5087963;28;20050;-44
2021/10/16 10:57:42;;;;;;;7.97;2.30;;;13.30;99.90;;;;;;5087250;28;20024;-43
2021/10/16 11:00:10;;;;;;;5.90;2.00;;;13.30;99.90;;;;;;5083849;28;20386;-43
2021/10/16 11:02:36;;;;;;;8.07;1.92;;;13.40;99.90;;;;;;5067227;28;20051;-44
2021/10/16 11:05:04;;;;;;;6.00;2.00;;;13.40;99.90;;;;;;5086769;28;20475;-44
2021/10/16 11:07:47;;;;;;;8.80;2.30;;;13.50;99.90;;;;;;5086005;28;20012;-43
2021/10/16 11:10:13;;;;;;;10.35;2.88;;;13.50;99.90;;;;;;5085113;28;20650;-43
2021/10/16 11:12:41;;;;;;;12.65;3.25;;;13.60;99.90;;;;;;5086069;28;20036;-44
2021/10/16 11:15:08;;;;;;;6.40;2.40;;;13.60;99.90;;;;;;5084879;28;20028;-42
2021/10/16 11:17:39;;;;;;;7.20;2.50;;;13.70;99.90;;;;;;5086690;28;20035;-43
2021/10/16 11:20:06;;;;;;;6.18;2.70;;;13.70;99.90;;;;;;5084604;28;20508;-43
2021/10/16 11:22:44;;;;;;;7.63;2.40;;;13.60;99.90;;;;;;5086075;28;20028;-43
2021/10/16 11:25:18;;;;;;;7.90;2.33;;;13.60;99.90;;;;;;5085929;28;20020;-43
2021/10/16 11:27:58;;;;;;;12.10;2.60;;;13.70;99.90;;;;;;5065349;28;20027;-44
2021/10/16 11:30:24;;;;;;;7.75;2.60;;;13.70;99.90;;;;;;5081730;28;20020;-43
2021/10/16 11:32:49;;;;;;;9.63;2.80;;;13.70;99.90;;;;;;5086309;28;20423;-43
2021/10/16 11:35:15;;;;;;;7.70;2.78;;;13.80;99.90;;;;;;5085509;28;20043;-42
2021/10/16 11:37:48;;;;;;;5.95;2.05;;;13.80;99.90;;;;;;5086471;28;20039;-43
2021/10/16 11:40:19;;;;;;;7.10;2.22;;;13.90;99.90;;;;;;5086392;28;20048;-45
2021/10/16 11:42:54;;;;;;;7.50;2.40;;;14.00;99.90;;;;;;5086319;28;20074;-43
2021/10/16 11:45:24;;;;;;;11.13;2.60;;;14.00;99.90;;;;;;5086998;28;20051;-43
2021/10/16 11:47:53;;;;;;;6.57;2.55;;;14.00;99.90;;;;;;5087267;28;20056;-43
2021/10/16 11:50:22;;;;;;;7.93;1.90;;;14.00;99.90;;;;;;5086260;28;20016;-43
2021/10/16 11:52:50;;;;;;;8.70;2.40;;;14.00;99.90;;;;;;5086810;28;20090;-44
2021/10/16 11:55:26;;;;;;;6.60;2.15;;;14.00;99.90;;;;;;5086749;28;20115;-43
2021/10/16 11:58:11;;;;;;;7.22;2.60;;;14.00;99.90;;;;;;5086900;28;20060;-45
2021/10/16 12:00:38;;;;;;;9.50;2.80;;;14.10;99.90;;;;;;5086890;28;20528;-43
2021/10/16 12:03:13;;;;;;;10.45;3.10;;;14.10;99.90;;;;;;5086304;28;20036;-43
2021/10/16 12:05:43;;;;;;;9.07;2.50;;;14.10;99.90;;;;;;5086975;28;20020;-43
2021/10/16 12:08:32;;;;;;;8.02;2.53;;;14.20;99.90;;;;;;5086819;28;20368;-43
2021/10/16 12:10:59;;;;;;;7.82;2.88;;;14.30;99.90;;;;;;5086106;28;20064;-43
2021/10/16 12:13:42;;;;;;;5.97;2.13;;;14.30;99.90;;;;;;5087102;28;20043;-45
2021/10/16 12:16:19;;;;;;;7.38;2.22;;;14.40;99.90;;;;;;5085986;28;20028;-42
2021/10/16 12:19:05;;;;;;;8.43;2.63;;;14.40;99.90;;;;;;5087079;28;20061;-43
2021/10/16 12:21:34;;;;;;;8.75;2.40;;;14.40;99.90;;;;;;5087364;28;20099;-45
2021/10/16 12:24:12;;;;;;;10.27;2.80;;;14.40;99.90;;;;;;5086057;28;20085;-44
2021/10/16 12:26:38;;;;;;;7.35;2.53;;;14.50;99.90;;;;;;5086906;28;20064;-43
2021/10/16 12:29:07;;;;;;;8.52;2.47;;;14.50;99.90;;;;;;5090150;28;20035;-43
2021/10/16 12:31:47;;;;;;;6.25;2.40;;;14.50;99.90;;;;;;5090491;28;20092;-44
2021/10/16 12:34:29;;;;;;;8.55;2.50;;;14.60;99.90;;;;;;5090396;28;20066;-42
2021/10/16 12:37:03;;;;;;;7.47;2.47;;;14.60;99.90;;;;;;5090100;28;20067;-45
2021/10/16 12:39:38;;;;;;;5.30;1.88;;;14.60;99.90;;;;;;5090231;28;20028;-43
2021/10/16 12:42:25;;;;;;;5.03;2.20;;;14.70;99.90;;;;;;5089942;28;20024;-44
2021/10/16 12:45:05;;;;;;;5.68;2.30;;;14.70;99.90;;;;;;5089672;28;20386;-43
2021/10/16 12:47:31;;;;;;;10.73;2.60;;;14.70;99.90;;;;;;5090912;28;20046;-43
2021/10/16 12:50:05;;;;;;;8.15;2.60;;;14.70;99.90;;;;;;5090080;28;20463;-44
2021/10/16 12:52:34;;;;;;;6.78;2.08;;;14.60;99.90;;;;;;5089161;28;20372;-44
2021/10/16 12:55:18;;;;;;;6.43;2.42;;;14.60;99.90;;;;;;5090172;28;20024;-46
2021/10/16 12:58:05;;;;;;;6.90;2.28;;;14.60;99.90;;;;;;5089709;28;20032;-43
2021/10/16 13:00:36;;;;;;;6.82;2.20;;;14.60;99.90;;;;;;5090064;28;20131;-44
2021/10/16 13:03:06;;;;;;;6.85;2.22;;;14.60;99.90;;;;;;5089528;28;20107;-44
2021/10/16 13:05:35;;;;;;;8.57;2.28;;;14.60;99.90;;;;;;5089670;28;20107;-44
2021/10/16 13:08:02;;;;;;;7.97;2.17;;;14.60;99.90;;;;;;5089232;28;20016;-43
2021/10/16 13:10:29;;;;;;;8.18;2.42;;;14.60;99.90;;;;;;5090029;28;20085;-43
2021/10/16 13:12:56;;;;;;;6.10;2.13;;;14.70;99.90;;;;;;5088922;28;20028;-44
2021/10/16 13:15:22;;;;;;;9.93;2.92;;;14.70;99.90;;;;;;5089520;28;20055;-43
2021/10/16 13:17:47;;;;;;;13.77;3.00;;;14.70;99.90;;;;;;5089685;28;20035;-42
2021/10/16 13:20:15;;;;;;;8.35;2.70;;;14.70;99.90;;;;;;5089092;28;20032;-42